Time;durP1;ratioP1;P1;durP2;ratioP2;P2;SDS_P1;SDS_P2;PMS_P1;PMS_P2;Temp;Humidity;BMP_temperature;BMP_pressure;BME280_temperature;BME280_humidity;BME280_pressure;Samples;Min_cycle;Max_cycle;Signal;HPM_P1;HPM_P2
2022/02/18 00:01:04;;;;;;;20.98;4.03;;;7.00;99.90;;;;;;5067844;28;20561;-67
2022/02/18 00:03:40;;;;;;;14.88;3.35;;;7.00;99.90;;;;;;5067919;28;20060;-67
2022/02/18 00:06:09;;;;;;;12.35;3.25;;;7.20;99.90;;;;;;5071211;28;20449;-67
2022/02/18 00:08:36;;;;;;;8.75;2.90;;;7.20;99.90;;;;;;5070738;28;20052;-67
2022/02/18 00:11:05;;;;;;;19.83;3.72;;;7.20;99.90;;;;;;5070968;28;20118;-67
2022/02/18 00:13:34;;;;;;;19.25;3.47;;;7.20;99.90;;;;;;5069566;28;20128;-67
2022/02/18 00:16:03;;;;;;;17.45;3.67;;;7.30;99.90;;;;;;5068771;28;20048;-67
2022/02/18 00:18:31;;;;;;;20.30;4.28;;;7.30;99.90;;;;;;5070842;28;20051;-67
2022/02/18 00:20:58;;;;;;;23.30;4.57;;;7.40;99.90;;;;;;5069567;28;20266;-67
2022/02/18 00:23:26;;;;;;;22.58;5.00;;;7.40;99.90;;;;;;5071151;28;20047;-67
2022/02/18 00:25:54;;;;;;;24.95;5.20;;;7.40;99.90;;;;;;5071329;28;20048;-67
2022/02/18 00:28:22;;;;;;;18.30;4.55;;;7.40;99.90;;;;;;5069840;28;20472;-65
2022/02/18 00:30:50;;;;;;;24.05;5.55;;;7.40;99.90;;;;;;5068485;28;20051;-68
2022/02/18 00:33:19;;;;;;;24.88;4.90;;;7.40;99.90;;;;;;5052987;28;20048;-68
2022/02/18 00:35:48;;;;;;;18.65;4.15;;;7.40;99.90;;;;;;5053223;28;20566;-67
2022/02/18 00:38:17;;;;;;;23.77;5.68;;;7.40;99.90;;;;;;5068072;28;20385;-67
2022/02/18 00:40:45;;;;;;;24.33;5.07;;;7.40;99.90;;;;;;5070589;28;20037;-67
2022/02/18 00:43:13;;;;;;;21.85;5.78;;;7.50;99.90;;;;;;5070566;28;20040;-67
2022/02/18 00:45:41;;;;;;;21.85;4.95;;;7.50;99.90;;;;;;5071071;28;20085;-67
2022/02/18 00:48:09;;;;;;;34.53;5.57;;;7.50;99.90;;;;;;5050857;28;20068;-67
2022/02/18 00:50:36;;;;;;;26.88;5.30;;;7.50;99.90;;;;;;5066150;28;20123;-67
2022/02/18 00:53:06;;;;;;;28.45;5.25;;;7.60;99.90;;;;;;5069946;28;20048;-67
2022/02/18 00:55:35;;;;;;;32.85;6.30;;;7.60;99.90;;;;;;5052254;28;20048;-67
2022/02/18 00:58:03;;;;;;;24.80;6.35;;;7.50;99.90;;;;;;5057345;28;20048;-66
2022/02/18 01:00:30;;;;;;;30.75;6.43;;;7.50;99.90;;;;;;5070882;28;20045;-67
2022/02/18 01:02:59;;;;;;;30.17;5.50;;;7.50;99.90;;;;;;5070315;28;20063;-66
2022/02/18 01:05:28;;;;;;;24.92;5.40;;;7.60;99.90;;;;;;5071101;28;20049;-67
2022/02/18 01:07:55;;;;;;;27.27;5.07;;;7.60;99.90;;;;;;5070381;28;20435;-66
2022/02/18 01:10:23;;;;;;;33.28;5.85;;;7.60;99.90;;;;;;5049608;28;20133;-65
2022/02/18 01:12:50;;;;;;;21.60;5.15;;;7.70;99.90;;;;;;5054520;28;20156;-67
2022/02/18 01:15:19;;;;;;;36.13;5.97;;;7.70;99.90;;;;;;5066703;28;20428;-67
2022/02/18 01:17:46;;;;;;;24.30;5.25;;;7.70;99.90;;;;;;5048820;28;20594;-66
2022/02/18 01:20:17;;;;;;;36.08;5.78;;;7.70;99.90;;;;;;5050908;28;20060;-66
2022/02/18 01:22:46;;;;;;;28.13;4.88;;;7.80;99.90;;;;;;5040982;28;20037;-66
2022/02/18 01:25:15;;;;;;;33.80;5.50;;;7.80;99.90;;;;;;5069144;28;20056;-67
2022/02/18 01:27:43;;;;;;;30.38;5.05;;;7.90;99.90;;;;;;5050957;28;20045;-66
2022/02/18 01:30:12;;;;;;;28.67;4.90;;;7.90;99.90;;;;;;5069394;28;20506;-67
2022/02/18 01:32:39;;;;;;;28.77;5.30;;;7.90;99.90;;;;;;5050553;28;20040;-67
2022/02/18 01:35:07;;;;;;;33.60;5.55;;;8.00;99.90;;;;;;5034224;28;20043;-67
2022/02/18 01:37:35;;;;;;;35.65;5.95;;;7.90;99.90;;;;;;5068369;28;20490;-66
2022/02/18 01:40:02;;;;;;;29.05;5.80;;;7.90;99.90;;;;;;5068672;28;20048;-65
2022/02/18 01:42:31;;;;;;;30.25;5.35;;;8.00;99.90;;;;;;5054522;28;20068;-65
2022/02/18 01:44:58;;;;;;;25.55;5.70;;;8.00;99.90;;;;;;5060483;28;20044;-64
2022/02/18 01:47:25;;;;;;;29.45;6.57;;;8.00;99.90;;;;;;5064068;28;20098;-66
2022/02/18 01:49:54;;;;;;;36.55;6.30;;;7.90;99.90;;;;;;5068210;28;20179;-64
2022/02/18 01:52:27;;;;;;;27.90;6.15;;;7.90;99.90;;;;;;5050936;28;20076;-65
2022/02/18 01:54:55;;;;;;;28.30;5.60;;;8.00;99.90;;;;;;5062543;28;20059;-65
2022/02/18 01:57:24;;;;;;;25.83;5.22;;;7.90;99.90;;;;;;5069467;28;20056;-65
2022/02/18 01:59:52;;;;;;;31.95;6.07;;;7.90;99.90;;;;;;5050736;28;20040;-64
2022/02/18 02:02:19;;;;;;;27.35;5.38;;;7.90;99.90;;;;;;5064523;28;20486;-65
2022/02/18 02:04:47;;;;;;;25.58;5.43;;;7.80;99.90;;;;;;5034038;28;20040;-66
2022/02/18 02:07:21;;;;;;;23.48;5.85;;;7.90;99.90;;;;;;5067218;28;20052;-66
2022/02/18 02:09:49;;;;;;;22.63;4.93;;;7.90;99.90;;;;;;5034249;28;20064;-67
2022/02/18 02:12:17;;;;;;;23.25;4.88;;;7.80;99.90;;;;;;5050402;28;20048;-66
2022/02/18 02:14:50;;;;;;;30.42;5.68;;;7.90;99.90;;;;;;5043204;28;20028;-66
2022/02/18 02:17:23;;;;;;;31.08;4.75;;;7.90;99.90;;;;;;5041872;28;20075;-66
2022/02/18 02:19:51;;;;;;;32.40;6.40;;;7.80;99.90;;;;;;5049720;28;20045;-67
2022/02/18 02:22:27;;;;;;;16.30;4.20;;;7.80;99.90;;;;;;5050761;28;20081;-67
2022/02/18 02:24:55;;;;;;;28.35;5.10;;;7.70;99.90;;;;;;5049834;28;20566;-65
2022/02/18 02:27:25;;;;;;;29.15;5.78;;;7.70;99.90;;;;;;5050207;28;20418;-66
2022/02/18 02:29:53;;;;;;;25.00;4.68;;;7.80;99.90;;;;;;5067609;28;20048;-66
2022/02/18 02:32:22;;;;;;;34.47;5.40;;;7.70;99.90;;;;;;5033964;28;20522;-66
2022/02/18 02:34:51;;;;;;;31.63;5.70;;;7.70;99.90;;;;;;5047136;28;20045;-66
2022/02/18 02:37:19;;;;;;;26.00;5.00;;;7.70;99.90;;;;;;5045700;28;20048;-66
2022/02/18 02:39:47;;;;;;;30.52;4.47;;;7.70;99.90;;;;;;5051111;28;20043;-67
2022/02/18 02:42:21;;;;;;;26.10;4.97;;;7.70;99.90;;;;;;5042673;28;20044;-67
2022/02/18 02:44:55;;;;;;;26.33;5.47;;;7.70;99.90;;;;;;5051985;28;20036;-67
2022/02/18 02:47:24;;;;;;;25.88;5.53;;;7.70;99.90;;;;;;5049375;28;20041;-67
2022/02/18 02:50:01;;;;;;;21.42;4.85;;;7.80;99.90;;;;;;5050799;28;20475;-66
2022/02/18 02:52:29;;;;;;;23.98;4.85;;;7.80;99.90;;;;;;5049019;28;20118;-65
2022/02/18 02:55:07;;;;;;;24.40;4.63;;;7.70;99.90;;;;;;5050879;28;20119;-66
2022/02/18 02:57:35;;;;;;;25.83;4.57;;;7.80;99.90;;;;;;5049911;28;20063;-65
2022/02/18 03:00:04;;;;;;;28.05;4.93;;;7.70;99.90;;;;;;5043013;28;20040;-66
2022/02/18 03:02:32;;;;;;;22.88;4.57;;;7.60;99.90;;;;;;5054486;28;20158;-66
2022/02/18 03:04:59;;;;;;;28.45;6.07;;;7.70;99.90;;;;;;5049600;28;20586;-66
2022/02/18 03:07:27;;;;;;;21.83;5.60;;;7.80;99.90;;;;;;5043959;28;20079;-66
2022/02/18 03:10:03;;;;;;;26.25;6.22;;;7.70;99.90;;;;;;5050955;28;20538;-66
2022/02/18 03:12:32;;;;;;;23.77;5.63;;;7.80;99.90;;;;;;5049725;28;20171;-65
2022/02/18 03:15:08;;;;;;;25.27;4.97;;;7.70;99.90;;;;;;5049456;28;20036;-65
2022/02/18 03:17:38;;;;;;;26.77;4.82;;;7.70;99.90;;;;;;5028851;28;20119;-65
2022/02/18 03:20:21;;;;;;;23.42;4.43;;;7.70;99.90;;;;;;5050223;28;20097;-66
2022/02/18 03:22:50;;;;;;;26.77;4.65;;;7.60;99.90;;;;;;5050239;28;20044;-66
2022/02/18 03:25:17;;;;;;;24.80;4.50;;;7.60;99.90;;;;;;5050178;28;20037;-66
2022/02/18 03:27:46;;;;;;;25.42;5.72;;;7.50;99.90;;;;;;5049072;28;20517;-65
2022/02/18 03:30:17;;;;;;;26.63;5.35;;;7.40;99.90;;;;;;5048956;28;20463;-64
2022/02/18 03:32:47;;;;;;;29.10;6.07;;;7.50;99.90;;;;;;5063169;28;20068;-66
2022/02/18 03:35:22;;;;;;;23.80;4.25;;;7.50;99.90;;;;;;5076077;28;20456;-66
2022/02/18 03:37:49;;;;;;;20.35;5.15;;;7.40;99.90;;;;;;5050859;28;20379;-66
2022/02/18 03:40:26;;;;;;;23.75;4.80;;;7.40;99.90;;;;;;5052356;28;20406;-66
2022/02/18 03:42:53;;;;;;;24.88;4.85;;;7.40;99.90;;;;;;5086797;28;20033;-66
2022/02/18 03:45:23;;;;;;;27.88;5.47;;;7.30;99.90;;;;;;5043922;28;20037;-66
2022/02/18 03:47:51;;;;;;;19.55;4.50;;;7.20;99.90;;;;;;5052321;28;20109;-66
2022/02/18 03:50:18;;;;;;;29.20;5.03;;;7.20;99.90;;;;;;5048860;28;20136;-66
2022/02/18 03:52:46;;;;;;;23.98;4.13;;;7.20;99.90;;;;;;5059510;28;20510;-66
2022/02/18 03:55:14;;;;;;;21.08;4.80;;;7.20;99.90;;;;;;5051612;28;20053;-65
2022/02/18 03:57:47;;;;;;;26.58;5.25;;;7.20;99.90;;;;;;5053603;28;20036;-66
2022/02/18 04:00:16;;;;;;;24.48;4.78;;;7.20;99.90;;;;;;5052516;28;20074;-66
2022/02/18 04:02:46;;;;;;;23.33;3.95;;;7.20;99.90;;;;;;5070742;28;20105;-66
2022/02/18 04:05:44;;;;;;;24.25;4.80;;;7.20;99.90;;;;;;5050703;28;20483;-66
2022/02/18 04:08:34;;;;;;;27.63;4.72;;;7.20;99.90;;;;;;5022221;28;20055;-66
2022/02/18 04:11:03;;;;;;;23.02;4.88;;;7.10;99.90;;;;;;5065864;28;20056;-67
2022/02/18 04:13:30;;;;;;;27.20;5.65;;;7.00;99.90;;;;;;5051599;28;20106;-66
2022/02/18 04:15:58;;;;;;;26.95;5.00;;;7.00;99.90;;;;;;5052795;28;20040;-66
2022/02/18 04:18:26;;;;;;;22.23;5.35;;;7.00;99.90;;;;;;5052825;28;20040;-67
2022/02/18 04:21:00;;;;;;;20.45;4.68;;;7.00;99.90;;;;;;5052591;28;20041;-67
2022/02/18 04:23:42;;;;;;;22.40;4.63;;;6.90;99.90;;;;;;5051705;28;20067;-66
2022/02/18 04:26:11;;;;;;;28.58;5.22;;;6.90;99.90;;;;;;5054545;28;20036;-67
2022/02/18 04:28:38;;;;;;;28.83;5.20;;;6.90;99.90;;;;;;5070311;28;20055;-67
2022/02/18 04:31:06;;;;;;;26.38;5.22;;;7.00;99.90;;;;;;5052761;28;20207;-67
2022/02/18 04:33:35;;;;;;;23.98;4.95;;;6.90;99.90;;;;;;5061826;28;20039;-66
2022/02/18 04:36:02;;;;;;;23.98;4.78;;;6.80;99.90;;;;;;5070930;28;20475;-66
2022/02/18 04:38:30;;;;;;;22.20;4.78;;;6.70;99.90;;;;;;5052137;28;20048;-66
2022/02/18 04:40:58;;;;;;;26.90;5.18;;;6.70;99.90;;;;;;5052285;28;20044;-66
2022/02/18 04:43:25;;;;;;;24.67;5.45;;;6.80;99.90;;;;;;5071694;28;20514;-66
2022/02/18 04:45:52;;;;;;;30.23;4.80;;;6.80;99.90;;;;;;5070780;28;20056;-66
2022/02/18 04:48:20;;;;;;;22.05;4.97;;;6.70;99.90;;;;;;5052497;28;20522;-67
2022/02/18 04:50:47;;;;;;;25.30;5.28;;;6.60;99.90;;;;;;5066686;28;20094;-66
2022/02/18 04:53:34;;;;;;;22.27;4.57;;;6.50;99.90;;;;;;5070526;28;20371;-66
2022/02/18 04:56:04;;;;;;;21.55;5.20;;;6.40;99.90;;;;;;5072261;28;20153;-66
2022/02/18 04:58:31;;;;;;;29.02;4.63;;;6.40;99.90;;;;;;5069735;28;20403;-66
2022/02/18 05:00:59;;;;;;;26.75;5.05;;;6.30;99.90;;;;;;5068576;28;20041;-66
2022/02/18 05:03:27;;;;;;;29.55;6.15;;;6.40;99.90;;;;;;5070664;28;20127;-67
2022/02/18 05:05:54;;;;;;;25.02;4.97;;;6.30;99.90;;;;;;5070165;28;20033;-66
2022/02/18 05:08:22;;;;;;;27.77;6.00;;;6.30;99.90;;;;;;5052251;28;20045;-66
2022/02/18 05:10:49;;;;;;;28.92;6.13;;;6.30;99.90;;;;;;5058025;28;20478;-66
2022/02/18 05:13:16;;;;;;;32.42;5.45;;;6.20;99.90;;;;;;5055814;28;20101;-66
2022/02/18 05:15:44;;;;;;;18.83;4.60;;;6.20;99.90;;;;;;5059724;28;20063;-66
2022/02/18 05:18:11;;;;;;;22.95;5.72;;;6.30;99.90;;;;;;5068136;28;20526;-67
2022/02/18 05:20:38;;;;;;;31.13;4.68;;;6.40;99.90;;;;;;5068706;28;20048;-67
2022/02/18 05:23:06;;;;;;;33.15;5.88;;;6.40;99.90;;;;;;5068682;28;20704;-67
2022/02/18 05:25:34;;;;;;;26.05;3.97;;;6.40;99.90;;;;;;5069858;28;20098;-67
2022/02/18 05:28:04;;;;;;;25.80;5.30;;;6.40;99.90;;;;;;5069261;28;20077;-66
2022/02/18 05:30:32;;;;;;;27.60;5.18;;;6.40;99.90;;;;;;5069981;28;20072;-67
2022/02/18 05:32:59;;;;;;;20.77;4.93;;;6.50;99.90;;;;;;5065735;28;20450;-67
2022/02/18 05:35:26;;;;;;;21.90;5.05;;;6.50;99.90;;;;;;5070064;28;20500;-67
2022/02/18 05:37:54;;;;;;;27.60;4.88;;;6.50;99.90;;;;;;5058787;28;20510;-67
2022/02/18 05:40:21;;;;;;;27.67;5.03;;;6.50;99.90;;;;;;5064635;28;20037;-66
2022/02/18 05:42:49;;;;;;;25.52;5.30;;;6.50;99.90;;;;;;5058744;28;20491;-67
2022/02/18 05:45:17;;;;;;;28.10;4.90;;;6.50;99.90;;;;;;5064641;28;20058;-65
2022/02/18 05:47:46;;;;;;;26.45;5.70;;;6.60;99.90;;;;;;5050278;28;20059;-66
2022/02/18 05:50:14;;;;;;;27.38;4.90;;;6.60;99.90;;;;;;5068921;28;20051;-66
2022/02/18 05:52:44;;;;;;;30.58;6.25;;;6.70;99.90;;;;;;5069014;28;20135;-66
2022/02/18 05:55:11;;;;;;;34.22;5.68;;;6.60;99.90;;;;;;5050279;28;20249;-67
2022/02/18 05:57:39;;;;;;;29.13;5.72;;;6.50;99.90;;;;;;5061203;28;20093;-67
2022/02/18 06:00:07;;;;;;;23.35;5.45;;;6.50;99.90;;;;;;5061644;28;20049;-67
2022/02/18 06:02:39;;;;;;;32.22;5.68;;;6.40;99.90;;;;;;5056281;28;20567;-69
2022/02/18 06:05:07;;;;;;;24.75;4.90;;;6.40;99.90;;;;;;5064208;28;20037;-67
2022/02/18 06:07:34;;;;;;;25.55;5.50;;;6.30;99.90;;;;;;5057208;28;20040;-67
2022/02/18 06:10:03;;;;;;;20.55;5.53;;;6.30;99.90;;;;;;5064009;28;20131;-67
2022/02/18 06:12:30;;;;;;;24.27;5.45;;;6.20;99.90;;;;;;5071375;28;20064;-67
2022/02/18 06:14:57;;;;;;;20.85;5.32;;;6.20;99.90;;;;;;5070670;28;20056;-67
2022/02/18 06:17:25;;;;;;;24.05;5.55;;;6.20;99.90;;;;;;5070362;28;20491;-67
2022/02/18 06:19:54;;;;;;;29.73;7.00;;;6.20;99.90;;;;;;5052194;28;20050;-67
2022/02/18 06:22:22;;;;;;;22.95;4.60;;;6.30;99.90;;;;;;5059678;28;20119;-67
2022/02/18 06:24:50;;;;;;;25.70;5.70;;;6.30;99.90;;;;;;5056267;28;20138;-67
2022/02/18 06:27:18;;;;;;;31.23;5.97;;;6.30;99.90;;;;;;5070024;28;20040;-68
2022/02/18 06:29:49;;;;;;;21.23;5.78;;;6.40;99.90;;;;;;5068361;28;20415;-66
2022/02/18 06:32:16;;;;;;;19.88;5.10;;;6.40;99.90;;;;;;5069701;28;20161;-67
2022/02/18 06:34:43;;;;;;;26.90;5.80;;;6.50;99.90;;;;;;5070249;28;20093;-67
2022/02/18 06:37:10;;;;;;;23.42;4.68;;;6.50;99.90;;;;;;5062820;28;20496;-68
2022/02/18 06:39:38;;;;;;;26.83;5.35;;;6.50;99.90;;;;;;5054429;28;20045;-68
2022/02/18 06:42:06;;;;;;;25.08;5.32;;;6.60;99.90;;;;;;5050783;28;20040;-67
2022/02/18 06:44:33;;;;;;;27.88;5.90;;;6.60;99.90;;;;;;5066373;28;20138;-67
2022/02/18 06:47:01;;;;;;;26.30;4.97;;;6.70;99.90;;;;;;5068002;28;20074;-66
2022/02/18 06:49:28;;;;;;;25.63;5.28;;;6.70;99.90;;;;;;5066356;28;20473;-66
2022/02/18 06:51:55;;;;;;;24.70;5.63;;;6.90;99.90;;;;;;5053842;28;20365;-66
2022/02/18 06:54:24;;;;;;;23.42;5.35;;;6.90;99.90;;;;;;5047526;28;20045;-66
2022/02/18 06:56:56;;;;;;;26.67;5.20;;;7.00;99.90;;;;;;5039504;28;20102;-67
2022/02/18 06:59:23;;;;;;;27.40;5.75;;;7.00;99.90;;;;;;5060279;28;20037;-66
2022/02/18 07:01:53;;;;;;;25.42;5.78;;;7.00;99.90;;;;;;5051718;28;20041;-66
2022/02/18 07:04:22;;;;;;;28.38;6.10;;;7.00;99.90;;;;;;5017055;28;20400;-66
2022/02/18 07:06:50;;;;;;;28.52;5.25;;;7.00;99.90;;;;;;5068143;28;20098;-67
2022/02/18 07:09:19;;;;;;;26.48;5.43;;;7.10;99.90;;;;;;5068049;28;20083;-66
2022/02/18 07:11:46;;;;;;;26.55;6.13;;;7.00;99.90;;;;;;5044697;28;20041;-67
2022/02/18 07:14:13;;;;;;;27.83;5.03;;;7.00;99.90;;;;;;5050034;28;20063;-66
2022/02/18 07:16:41;;;;;;;21.17;6.25;;;7.10;99.90;;;;;;5069437;28;20140;-66
2022/02/18 07:19:13;;;;;;;18.70;5.07;;;7.10;99.90;;;;;;5062301;28;20037;-67
2022/02/18 07:21:41;;;;;;;19.27;5.05;;;7.20;99.90;;;;;;5073770;28;20499;-67
2022/02/18 07:24:10;;;;;;;22.90;5.63;;;7.10;99.90;;;;;;5068969;28;20135;-67
2022/02/18 07:26:37;;;;;;;20.63;5.25;;;7.10;99.90;;;;;;5074166;28;20057;-67
2022/02/18 07:29:06;;;;;;;21.95;5.35;;;7.20;99.90;;;;;;5074794;28;20579;-67
2022/02/18 07:31:33;;;;;;;22.58;5.70;;;7.20;99.90;;;;;;5074089;28;20135;-67
2022/02/18 07:34:00;;;;;;;26.85;5.95;;;7.40;99.90;;;;;;5072492;28;20044;-67
2022/02/18 07:36:29;;;;;;;25.23;5.13;;;7.40;99.90;;;;;;5064964;28;20044;-66
2022/02/18 07:38:56;;;;;;;18.70;4.97;;;7.40;99.90;;;;;;5066355;28;20067;-67
2022/02/18 07:41:24;;;;;;;21.80;4.65;;;7.40;99.90;;;;;;5057253;28;20047;-66
2022/02/18 07:43:51;;;;;;;23.65;6.40;;;7.40;99.90;;;;;;5073555;28;20036;-67
2022/02/18 07:46:19;;;;;;;20.90;4.70;;;7.40;99.90;;;;;;5075381;28;20131;-68
2022/02/18 07:48:46;;;;;;;25.70;5.18;;;7.50;99.90;;;;;;5055516;28;20086;-67
2022/02/18 07:51:15;;;;;;;26.15;5.43;;;7.50;99.90;;;;;;5075132;28;20040;-67
2022/02/18 07:53:42;;;;;;;19.17;5.57;;;7.50;99.90;;;;;;5064722;28;20104;-68
2022/02/18 07:56:10;;;;;;;21.30;4.85;;;7.50;99.90;;;;;;5057785;28;20411;-67
2022/02/18 07:58:38;;;;;;;24.80;4.50;;;7.60;99.90;;;;;;5064356;28;20526;-68
2022/02/18 08:01:17;;;;;;;23.77;5.50;;;7.60;99.90;;;;;;5072867;28;20540;-68
2022/02/18 08:03:46;;;;;;;25.73;4.90;;;7.70;99.90;;;;;;5072086;28;20495;-66
2022/02/18 08:06:14;;;;;;;21.67;4.40;;;7.70;99.90;;;;;;5071797;28;20496;-68
2022/02/18 08:08:42;;;;;;;25.35;4.95;;;7.70;99.90;;;;;;5072430;28;20121;-68
2022/02/18 08:11:11;;;;;;;19.20;4.78;;;7.80;99.90;;;;;;5071818;28;20064;-68
2022/02/18 08:13:38;;;;;;;26.77;4.93;;;7.80;99.90;;;;;;5073512;28;20059;-67
2022/02/18 08:16:05;;;;;;;19.73;4.43;;;7.80;99.90;;;;;;5068867;28;20470;-68
2022/02/18 08:18:33;;;;;;;18.60;5.40;;;7.90;99.90;;;;;;5053983;28;20048;-68
2022/02/18 08:21:00;;;;;;;20.73;4.82;;;8.00;99.90;;;;;;5054448;28;20051;-67
2022/02/18 08:23:28;;;;;;;28.15;5.70;;;8.00;99.90;;;;;;5053889;28;20032;-68
2022/02/18 08:25:55;;;;;;;16.95;4.93;;;8.00;99.90;;;;;;5072492;28;20051;-68
2022/02/18 08:28:22;;;;;;;20.23;4.10;;;8.00;99.90;;;;;;5073800;28;20052;-68
2022/02/18 08:30:50;;;;;;;21.15;5.18;;;8.10;99.90;;;;;;5072647;28;20454;-69
2022/02/18 08:33:20;;;;;;;23.90;5.97;;;8.10;99.90;;;;;;5070288;28;20419;-67
2022/02/18 08:35:49;;;;;;;20.88;4.60;;;8.10;99.90;;;;;;5072788;28;20155;-67
2022/02/18 08:38:16;;;;;;;17.08;4.53;;;8.20;99.90;;;;;;5068914;28;20040;-67
2022/02/18 08:40:43;;;;;;;18.42;4.03;;;8.20;99.90;;;;;;5072784;28;20102;-66
2022/02/18 08:43:11;;;;;;;18.88;4.60;;;8.30;99.90;;;;;;5072870;28;20044;-66
2022/02/18 08:45:38;;;;;;;11.88;3.70;;;8.30;99.90;;;;;;5072471;28;20403;-66
2022/02/18 08:48:05;;;;;;;19.30;4.82;;;8.30;99.90;;;;;;5072294;28;20040;-67
2022/02/18 08:50:33;;;;;;;15.77;4.28;;;8.40;99.90;;;;;;5070712;28;20048;-67
2022/02/18 08:53:00;;;;;;;23.17;4.18;;;8.50;99.90;;;;;;5071318;28;20479;-68
2022/02/18 08:55:27;;;;;;;17.95;4.38;;;8.60;99.90;;;;;;5070987;28;20279;-67
2022/02/18 08:57:54;;;;;;;17.38;4.90;;;8.60;99.90;;;;;;5050974;28;20037;-67
2022/02/18 09:00:22;;;;;;;19.52;4.72;;;8.50;99.90;;;;;;5071949;28;20410;-67
2022/02/18 09:02:50;;;;;;;15.63;4.20;;;8.60;99.90;;;;;;5050853;28;20055;-67
2022/02/18 09:05:17;;;;;;;21.95;4.43;;;8.50;99.90;;;;;;5062583;28;20045;-67
2022/02/18 09:07:45;;;;;;;17.08;4.40;;;8.50;99.90;;;;;;5068038;28;20103;-67
2022/02/18 09:10:13;;;;;;;20.85;4.35;;;8.50;99.90;;;;;;5072678;28;20048;-67
2022/02/18 09:12:41;;;;;;;14.82;3.80;;;8.50;99.90;;;;;;5071571;28;20443;-66
2022/02/18 09:15:10;;;;;;;23.77;4.82;;;8.50;99.90;;;;;;5070779;28;20037;-66
2022/02/18 09:18:04;;;;;;;14.23;4.10;;;8.60;99.90;;;;;;5046936;28;20086;-67
2022/02/18 09:20:33;;;;;;;22.33;3.88;;;8.70;99.90;;;;;;5062569;28;20028;-67
2022/02/18 09:23:00;;;;;;;17.42;4.03;;;8.70;99.90;;;;;;5061100;28;20041;-67
2022/02/18 09:25:28;;;;;;;23.02;4.55;;;8.80;99.90;;;;;;5056387;28;20045;-68
2022/02/18 09:27:55;;;;;;;21.70;4.40;;;8.80;99.90;;;;;;5043523;28;20076;-67
2022/02/18 09:30:23;;;;;;;24.92;4.32;;;8.90;99.90;;;;;;5069039;28;20045;-66
2022/02/18 09:33:12;;;;;;;15.57;4.35;;;9.00;99.90;;;;;;5058434;28;20047;-66
2022/02/18 09:35:41;;;;;;;23.42;4.95;;;9.00;99.90;;;;;;5069351;28;20052;-66
2022/02/18 09:38:10;;;;;;;18.00;4.72;;;9.10;99.90;;;;;;5066099;28;20531;-66
2022/02/18 09:40:37;;;;;;;14.65;3.47;;;9.10;99.90;;;;;;5051390;28;20052;-67
2022/02/18 09:43:05;;;;;;;16.35;3.88;;;9.30;99.90;;;;;;5056218;28;20186;-67
2022/02/18 09:45:32;;;;;;;18.80;4.00;;;9.30;99.90;;;;;;5065511;28;20036;-67
2022/02/18 09:48:01;;;;;;;18.23;3.92;;;9.40;99.90;;;;;;5064702;28;20469;-66
2022/02/18 09:50:29;;;;;;;13.48;3.92;;;9.50;99.90;;;;;;5067684;28;20074;-66
2022/02/18 09:53:17;;;;;;;18.10;3.55;;;9.50;99.90;;;;;;5054065;28;20106;-67
2022/02/18 09:55:45;;;;;;;17.42;4.53;;;9.70;99.90;;;;;;5069653;28;20040;-67
2022/02/18 09:58:20;;;;;;;17.15;4.45;;;9.70;99.90;;;;;;5069632;28;20075;-67
2022/02/18 10:00:48;;;;;;;17.83;4.20;;;9.80;99.90;;;;;;5067039;28;20415;-67
2022/02/18 10:03:19;;;;;;;15.00;4.00;;;9.80;99.90;;;;;;5069121;28;20071;-67
2022/02/18 10:05:47;;;;;;;18.30;4.43;;;9.70;99.90;;;;;;5067432;28;20380;-67
2022/02/18 10:08:17;;;;;;;21.95;4.00;;;9.80;99.90;;;;;;5067353;28;20118;-66
2022/02/18 10:10:58;;;;;;;15.68;4.15;;;9.80;99.90;;;;;;5029181;28;20064;-67
2022/02/18 10:13:35;;;;;;;19.30;4.28;;;9.80;99.90;;;;;;5055162;28;20040;-67
2022/02/18 10:16:33;;;;;;;14.68;3.53;;;9.80;99.90;;;;;;5062994;28;20048;-67
2022/02/18 10:19:10;;;;;;;20.48;4.80;;;9.80;99.90;;;;;;5067850;28;20399;-66
2022/02/18 10:21:39;;;;;;;15.23;4.15;;;9.90;99.90;;;;;;5069302;28;20125;-67
2022/02/18 10:24:14;;;;;;;20.02;4.60;;;10.00;99.90;;;;;;5070976;28;20056;-67
2022/02/18 10:26:41;;;;;;;15.57;3.60;;;10.10;99.90;;;;;;5062394;28;20044;-67
2022/02/18 10:29:23;;;;;;;18.00;4.22;;;10.30;99.90;;;;;;5044367;28;20511;-67
2022/02/18 10:32:11;;;;;;;22.25;4.80;;;10.40;99.90;;;;;;5068899;28;20066;-67
2022/02/18 10:34:55;;;;;;;19.65;4.90;;;10.40;99.90;;;;;;5048843;28;20503;-67
2022/02/18 10:37:30;;;;;;;17.10;3.92;;;10.40;99.90;;;;;;5070443;28;20055;-66
2022/02/18 10:40:08;;;;;;;15.68;3.85;;;10.40;99.90;;;;;;5069102;28;20044;-67
2022/02/18 10:42:35;;;;;;;21.15;3.80;;;10.50;99.90;;;;;;5067577;28;20037;-67
2022/02/18 10:45:18;;;;;;;18.02;4.05;;;10.60;99.90;;;;;;5064990;28;20040;-66
2022/02/18 10:47:48;;;;;;;12.40;3.50;;;10.70;99.90;;;;;;5070544;28;20482;-66
2022/02/18 10:50:24;;;;;;;14.57;3.85;;;10.80;99.90;;;;;;5066210;28;20379;-66
2022/02/18 10:53:18;;;;;;;14.02;3.95;;;10.90;99.90;;;;;;5069284;28;20051;-67
2022/02/18 10:55:49;;;;;;;16.98;4.07;;;10.90;99.90;;;;;;5045350;28;20045;-68
2022/02/18 10:58:29;;;;;;;20.92;4.80;;;10.90;99.90;;;;;;5069629;28;20048;-68
2022/02/18 11:01:12;;;;;;;15.35;3.90;;;10.90;99.90;;;;;;5062617;28;20044;-67
2022/02/18 11:03:41;;;;;;;22.05;4.45;;;10.90;99.90;;;;;;5059307;28;20604;-68
2022/02/18 11:06:17;;;;;;;22.90;4.55;;;10.90;99.90;;;;;;5068838;28;20471;-68
2022/02/18 11:08:59;;;;;;;23.73;4.30;;;10.80;99.90;;;;;;5069533;28;20387;-69
2022/02/18 11:11:45;;;;;;;18.60;4.22;;;10.90;99.90;;;;;;5065383;28;20053;-68
2022/02/18 11:14:18;;;;;;;18.08;4.18;;;10.90;99.90;;;;;;5061043;28;20048;-68
2022/02/18 11:16:52;;;;;;;14.55;3.72;;;11.00;99.90;;;;;;5064435;28;20048;-68
2022/02/18 11:19:20;;;;;;;10.93;3.03;;;11.00;99.90;;;;;;5065594;28;20041;-68
2022/02/18 11:22:07;;;;;;;16.30;3.35;;;11.00;99.90;;;;;;5063541;28;20071;-66
2022/02/18 11:24:35;;;;;;;13.68;3.85;;;11.20;99.90;;;;;;5064356;28;20503;-68
2022/02/18 11:27:03;;;;;;;15.20;4.65;;;11.30;99.90;;;;;;5066551;28;20122;-68
2022/02/18 11:29:35;;;;;;;14.48;3.67;;;11.50;99.90;;;;;;5064428;28;20131;-68
2022/02/18 11:32:14;;;;;;;16.73;3.85;;;11.70;99.90;;;;;;5065928;28;20063;-68
2022/02/18 11:35:09;;;;;;;16.17;3.95;;;11.80;99.90;;;;;;5067757;28;20124;-68
2022/02/18 11:38:02;;;;;;;14.80;3.45;;;11.80;99.90;;;;;;5059114;28;20055;-67
2022/02/18 11:40:54;;;;;;;13.43;3.85;;;11.70;99.90;;;;;;5069669;28;20043;-68
2022/02/18 11:43:42;;;;;;;17.42;4.32;;;11.60;99.90;;;;;;5050520;28;20537;-69
2022/02/18 11:46:11;;;;;;;13.90;3.78;;;11.60;99.90;;;;;;5068696;28;20131;-68
2022/02/18 11:48:50;;;;;;;15.23;3.55;;;11.70;99.90;;;;;;5069190;28;20108;-68
2022/02/18 11:51:41;;;;;;;12.65;3.10;;;11.70;99.90;;;;;;5067589;28;20078;-68
2022/02/18 11:54:26;;;;;;;16.08;3.72;;;11.80;99.90;;;;;;5062187;28;20117;-67
2022/02/18 11:57:18;;;;;;;16.02;3.58;;;11.90;99.90;;;;;;5050718;28;20119;-67
2022/02/18 12:00:07;;;;;;;17.23;3.33;;;12.10;99.90;;;;;;5067413;28;20072;-67
2022/02/18 12:02:41;;;;;;;10.68;3.30;;;12.30;99.90;;;;;;5059860;28;20283;-67
2022/02/18 12:05:11;;;;;;;14.23;3.63;;;12.40;99.90;;;;;;5072443;28;20098;-68
2022/02/18 12:07:41;;;;;;;12.43;2.85;;;12.60;99.90;;;;;;5069796;28;20123;-68
2022/02/18 12:10:15;;;;;;;13.88;3.28;;;12.60;99.90;;;;;;5070219;28;20051;-69
2022/02/18 12:12:43;;;;;;;11.20;2.92;;;12.70;99.90;;;;;;5066813;28;20147;-68
2022/02/18 12:15:11;;;;;;;8.77;3.05;;;12.80;99.90;;;;;;5065379;28;20056;-67
2022/02/18 12:18:03;;;;;;;8.10;2.70;;;12.90;99.90;;;;;;5059561;28;20511;-68
2022/02/18 12:20:33;;;;;;;9.77;2.88;;;13.20;99.90;;;;;;5068316;28;20110;-67
2022/02/18 12:23:26;;;;;;;14.00;3.33;;;13.40;99.90;;;;;;5069201;28;20151;-66
2022/02/18 12:26:27;;;;;;;13.10;3.65;;;13.30;99.90;;;;;;5062304;28;20051;-68
2022/02/18 12:29:19;;;;;;;12.95;3.15;;;13.50;99.90;;;;;;5062558;28;20116;-68
2022/02/18 12:31:50;;;;;;;;;;;13.60;99.90;;;;;;5054592;28;20041;-68
2022/02/18 12:34:29;;;;;;;13.85;3.05;;;13.70;99.90;;;;;;5064115;28;19939;-67
2022/02/18 12:36:56;;;;;;;11.73;3.22;;;13.80;99.90;;;;;;5051119;28;20135;-68
2022/02/18 12:39:38;;;;;;;12.95;3.20;;;13.80;99.90;;;;;;5066362;28;20526;-68
2022/02/18 12:42:26;;;;;;;13.82;3.05;;;14.00;99.90;;;;;;5062300;28;20151;-68
2022/02/18 12:44:56;;;;;;;8.40;2.17;;;14.00;99.90;;;;;;5055232;28;20459;-68
2022/02/18 12:47:29;;;;;;;9.75;2.78;;;14.20;99.90;;;;;;5070291;28;20562;-68
2022/02/18 12:50:00;;;;;;;10.20;3.58;;;14.60;99.90;;;;;;5047306;28;20044;-68
2022/02/18 12:52:29;;;;;;;9.18;3.00;;;15.40;99.90;;;;;;5063217;28;20487;-68
2022/02/18 12:55:01;;;;;;;7.22;2.50;;;15.60;99.90;;;;;;5070200;28;20473;-68
2022/02/18 12:57:30;;;;;;;8.73;2.42;;;15.80;99.90;;;;;;5057660;28;20051;-68
2022/02/18 12:59:58;;;;;;;11.30;2.53;;;15.80;99.90;;;;;;5053404;28;20387;-68
2022/02/18 13:02:43;;;;;;;7.13;2.13;;;15.90;99.90;;;;;;5062470;28;20052;-69
2022/02/18 13:05:16;;;;;;;12.80;2.63;;;15.90;99.90;;;;;;5073032;28;20488;-68